Portada
METAR-TAF:

METAR-TAF

Aeroports :

Dodge Center Airport (Dodge Center Municipal)

Dodge Center, Minnesota, Estats Units d'Amèrica

latitud: 44-01-05N, longitud: 092-49-53W, altitud: 398 m

Observació

L'informe es va fer fa 10 minuts, a les 01:35 UTC
Vent 8 kt del Est
Temperatura 17°C
Humitat 94%
Pressió 1014 hPa
Visibilitat: 11.3 km
Cel cobert a una alçada de 500 ft

METAR: KTOB 200135Z AUTO 08008KT 7SM OVC005 17/16 A2993 RMK AO2

Hora: 20:45 (01:45 UTC)


TAF: manca

Observacions i pronòstics meteorològics de més de 4000 aeroports (METAR i TAF).

Les estacions disponibles són els punts grocs i vermells al mapa.

Posi el ratolí al punt desitjat per veure el nom de l'estació.

Feu clic per veure les observacions i els pronòstics meteorològics.

Per canviar el mapa: feu clic els botons verds amb una creu de color negre per apropar; al botó verd amb un guió per allunyar la imatge; o en les fletxes verdes per a mapes adjacents.


METAR-TAF: